<?xml version="1.0" encoding="UTF-8" standalone="no" ?>
<gpx xmlns="http://www.topografix.com/GPX/1/1" xmlns:xsi="http://www.w3.org/2001/XMLSchema-instance" xsi:schemaLocation="http://www.topografix.com/GPX/1/1 http://www.topografix.com/GPX/1/1/gpx.xsd" version="1.1" creator="VisuGPX - https://www.visugpx.com">
  <metadata>
    <name>Jura2019_3</name>
    <desc><![CDATA[De Metabief aux Rousses, le mercredi 5 juin 2019]]></desc>
  </metadata>
  <trk>
    <name><![CDATA[Jura2019_3]]></name>
    <trkseg>
      <trkpt lat="46.77258" lon="6.34675">
        <ele>1024.692505</ele>
        <time>2019-06-05T04:24:26Z</time>
      </trkpt>
      <trkpt lat="46.77368" lon="6.35135">
        <ele>1033.4</ele>
        <time>2019-06-05T04:27:59Z</time>
      </trkpt>
      <trkpt lat="46.77047" lon="6.3549">
        <ele>1069.2</ele>
        <time>2019-06-05T04:31:54Z</time>
      </trkpt>
      <trkpt lat="46.76948" lon="6.35554">
        <ele>1074.9</ele>
        <time>2019-06-05T04:32:48Z</time>
      </trkpt>
      <trkpt lat="46.76879" lon="6.3566">
        <ele>1080.9</ele>
        <time>2019-06-05T04:33:33Z</time>
      </trkpt>
      <trkpt lat="46.76835" lon="6.35795">
        <ele>1086.4</ele>
        <time>2019-06-05T04:35:28Z</time>
      </trkpt>
      <trkpt lat="46.76679" lon="6.35962">
        <ele>1098</ele>
        <time>2019-06-05T04:37:18Z</time>
      </trkpt>
      <trkpt lat="46.76578" lon="6.36221">
        <ele>1132.3</ele>
        <time>2019-06-05T04:39:31Z</time>
      </trkpt>
      <trkpt lat="46.76341" lon="6.36486">
        <ele>1166.9</ele>
        <time>2019-06-05T04:45:14Z</time>
      </trkpt>
      <trkpt lat="46.76292" lon="6.36614">
        <ele>1175.5</ele>
        <time>2019-06-05T04:46:14Z</time>
      </trkpt>
      <trkpt lat="46.76202" lon="6.3668">
        <ele>1185.4</ele>
        <time>2019-06-05T04:47:22Z</time>
      </trkpt>
      <trkpt lat="46.76068" lon="6.36679">
        <ele>1207.3</ele>
        <time>2019-06-05T04:48:55Z</time>
      </trkpt>
      <trkpt lat="46.75974" lon="6.36606">
        <ele>1217.1</ele>
        <time>2019-06-05T04:50:05Z</time>
      </trkpt>
      <trkpt lat="46.76188" lon="6.36527">
        <ele>1240</ele>
        <time>2019-06-05T04:53:20Z</time>
      </trkpt>
      <trkpt lat="46.76185" lon="6.36333">
        <ele>1249.3</ele>
        <time>2019-06-05T04:54:39Z</time>
      </trkpt>
      <trkpt lat="46.76137" lon="6.36206">
        <ele>1256.9</ele>
        <time>2019-06-05T04:55:36Z</time>
      </trkpt>
      <trkpt lat="46.76077" lon="6.35677">
        <ele>1286.6</ele>
        <time>2019-06-05T04:59:18Z</time>
      </trkpt>
      <trkpt lat="46.76034" lon="6.35537">
        <ele>1291</ele>
        <time>2019-06-05T05:00:06Z</time>
      </trkpt>
      <trkpt lat="46.75889" lon="6.35338">
        <ele>1309.2</ele>
        <time>2019-06-05T05:01:58Z</time>
      </trkpt>
      <trkpt lat="46.7569" lon="6.35218">
        <ele>1329.2</ele>
        <time>2019-06-05T05:04:05Z</time>
      </trkpt>
      <trkpt lat="46.7553" lon="6.35049">
        <ele>1347.6</ele>
        <time>2019-06-05T05:05:55Z</time>
      </trkpt>
      <trkpt lat="46.75413" lon="6.35017">
        <ele>1356.1</ele>
        <time>2019-06-05T05:07:09Z</time>
      </trkpt>
      <trkpt lat="46.75364" lon="6.34882">
        <ele>1365.9</ele>
        <time>2019-06-05T05:08:09Z</time>
      </trkpt>
      <trkpt lat="46.75335" lon="6.35034">
        <ele>1386</ele>
        <time>2019-06-05T05:10:29Z</time>
      </trkpt>
      <trkpt lat="46.75326" lon="6.3541">
        <ele>1407.8</ele>
        <time>2019-06-05T05:13:02Z</time>
      </trkpt>
      <trkpt lat="46.75236" lon="6.35489">
        <ele>1420.4</ele>
        <time>2019-06-05T05:14:05Z</time>
      </trkpt>
      <trkpt lat="46.75197" lon="6.35335">
        <ele>1437.1</ele>
        <time>2019-06-05T05:15:34Z</time>
      </trkpt>
      <trkpt lat="46.75133" lon="6.35221">
        <ele>1447.2</ele>
        <time>2019-06-05T05:16:33Z</time>
      </trkpt>
      <trkpt lat="46.75042" lon="6.35494">
        <ele>1463.3</ele>
        <time>2019-06-05T05:25:51Z</time>
      </trkpt>
      <trkpt lat="46.75046" lon="6.35697">
        <ele>1436.2</ele>
        <time>2019-06-05T05:26:20Z</time>
      </trkpt>
      <trkpt lat="46.74925" lon="6.35678">
        <ele>1414.7</ele>
        <time>2019-06-05T05:28:23Z</time>
      </trkpt>
      <trkpt lat="46.74817" lon="6.35724">
        <ele>1404.7</ele>
        <time>2019-06-05T05:28:52Z</time>
      </trkpt>
      <trkpt lat="46.74735" lon="6.35822">
        <ele>1402.2</ele>
        <time>2019-06-05T05:29:23Z</time>
      </trkpt>
      <trkpt lat="46.74634" lon="6.35874">
        <ele>1414</ele>
        <time>2019-06-05T05:30:50Z</time>
      </trkpt>
      <trkpt lat="46.74314" lon="6.35713">
        <ele>1447.3</ele>
        <time>2019-06-05T05:34:36Z</time>
      </trkpt>
      <trkpt lat="46.74247" lon="6.35611">
        <ele>1463.3</ele>
        <time>2019-06-05T05:35:23Z</time>
      </trkpt>
      <trkpt lat="46.7402" lon="6.35544">
        <ele>1463.9</ele>
        <time>2019-06-05T05:39:39Z</time>
      </trkpt>
      <trkpt lat="46.73923" lon="6.35472">
        <ele>1468.8</ele>
        <time>2019-06-05T05:40:14Z</time>
      </trkpt>
      <trkpt lat="46.73587" lon="6.35352">
        <ele>1480.2</ele>
        <time>2019-06-05T05:43:00Z</time>
      </trkpt>
      <trkpt lat="46.73428" lon="6.35516">
        <ele>1493.7</ele>
        <time>2019-06-05T05:48:35Z</time>
      </trkpt>
      <trkpt lat="46.73366" lon="6.35618">
        <ele>1506.7</ele>
        <time>2019-06-05T05:50:06Z</time>
      </trkpt>
      <trkpt lat="46.7351" lon="6.35431">
        <ele>1482.5</ele>
        <time>2019-06-05T06:03:44Z</time>
      </trkpt>
      <trkpt lat="46.73463" lon="6.353">
        <ele>1476.3</ele>
        <time>2019-06-05T06:11:52Z</time>
      </trkpt>
      <trkpt lat="46.73336" lon="6.35074">
        <ele>1478.6</ele>
        <time>2019-06-05T06:14:57Z</time>
      </trkpt>
      <trkpt lat="46.73307" lon="6.34912">
        <ele>1460</ele>
        <time>2019-06-05T06:15:29Z</time>
      </trkpt>
      <trkpt lat="46.73323" lon="6.34719">
        <ele>1447.9</ele>
        <time>2019-06-05T06:15:47Z</time>
      </trkpt>
      <trkpt lat="46.73397" lon="6.34428">
        <ele>1414.7</ele>
        <time>2019-06-05T06:16:16Z</time>
      </trkpt>
      <trkpt lat="46.73389" lon="6.34059">
        <ele>1369.8</ele>
        <time>2019-06-05T06:16:51Z</time>
      </trkpt>
      <trkpt lat="46.73441" lon="6.33929">
        <ele>1340.7</ele>
        <time>2019-06-05T06:18:05Z</time>
      </trkpt>
      <trkpt lat="46.73529" lon="6.33454">
        <ele>1318.5</ele>
        <time>2019-06-05T06:25:36Z</time>
      </trkpt>
      <trkpt lat="46.73681" lon="6.33074">
        <ele>1294.3</ele>
        <time>2019-06-05T06:26:22Z</time>
      </trkpt>
      <trkpt lat="46.73721" lon="6.3272">
        <ele>1277.1</ele>
        <time>2019-06-05T06:26:58Z</time>
      </trkpt>
      <trkpt lat="46.73796" lon="6.32404">
        <ele>1260.2</ele>
        <time>2019-06-05T06:27:30Z</time>
      </trkpt>
      <trkpt lat="46.73861" lon="6.32301">
        <ele>1252.3</ele>
        <time>2019-06-05T06:27:42Z</time>
      </trkpt>
      <trkpt lat="46.73999" lon="6.31884">
        <ele>1220.6</ele>
        <time>2019-06-05T06:28:16Z</time>
      </trkpt>
      <trkpt lat="46.74014" lon="6.3171">
        <ele>1207.6</ele>
        <time>2019-06-05T06:28:28Z</time>
      </trkpt>
      <trkpt lat="46.74132" lon="6.31734">
        <ele>1177.6</ele>
        <time>2019-06-05T06:29:26Z</time>
      </trkpt>
      <trkpt lat="46.74252" lon="6.3197">
        <ele>1165.2</ele>
        <time>2019-06-05T06:29:48Z</time>
      </trkpt>
      <trkpt lat="46.74373" lon="6.31993">
        <ele>1155.7</ele>
        <time>2019-06-05T06:30:00Z</time>
      </trkpt>
      <trkpt lat="46.74508" lon="6.31977">
        <ele>1141.1</ele>
        <time>2019-06-05T06:30:17Z</time>
      </trkpt>
      <trkpt lat="46.74488" lon="6.31806">
        <ele>1127.7</ele>
        <time>2019-06-05T06:30:34Z</time>
      </trkpt>
      <trkpt lat="46.74543" lon="6.31683">
        <ele>1119.5</ele>
        <time>2019-06-05T06:30:44Z</time>
      </trkpt>
      <trkpt lat="46.74472" lon="6.31575">
        <ele>1098.8</ele>
        <time>2019-06-05T06:33:49Z</time>
      </trkpt>
      <trkpt lat="46.74369" lon="6.31325">
        <ele>1109.2</ele>
        <time>2019-06-05T06:35:00Z</time>
      </trkpt>
      <trkpt lat="46.74224" lon="6.31123">
        <ele>1116</ele>
        <time>2019-06-05T06:36:27Z</time>
      </trkpt>
      <trkpt lat="46.74129" lon="6.31054">
        <ele>1121.4</ele>
        <time>2019-06-05T06:37:02Z</time>
      </trkpt>
      <trkpt lat="46.74081" lon="6.30924">
        <ele>1104.1</ele>
        <time>2019-06-05T06:39:16Z</time>
      </trkpt>
      <trkpt lat="46.73959" lon="6.30907">
        <ele>1104.8</ele>
        <time>2019-06-05T06:39:49Z</time>
      </trkpt>
      <trkpt lat="46.73855" lon="6.30849">
        <ele>1110.9</ele>
        <time>2019-06-05T06:41:14Z</time>
      </trkpt>
      <trkpt lat="46.73788" lon="6.30541">
        <ele>1126.2</ele>
        <time>2019-06-05T06:43:47Z</time>
      </trkpt>
      <trkpt lat="46.73761" lon="6.30174">
        <ele>1101.5</ele>
        <time>2019-06-05T06:47:27Z</time>
      </trkpt>
      <trkpt lat="46.73529" lon="6.29514">
        <ele>1093.1</ele>
        <time>2019-06-05T06:50:08Z</time>
      </trkpt>
      <trkpt lat="46.734" lon="6.29304">
        <ele>1100.4</ele>
        <time>2019-06-05T06:52:51Z</time>
      </trkpt>
      <trkpt lat="46.73364" lon="6.29149">
        <ele>1100.8</ele>
        <time>2019-06-05T06:53:52Z</time>
      </trkpt>
      <trkpt lat="46.73207" lon="6.28971">
        <ele>1118.6</ele>
        <time>2019-06-05T06:55:32Z</time>
      </trkpt>
      <trkpt lat="46.73025" lon="6.29104">
        <ele>1136.2</ele>
        <time>2019-06-05T06:57:35Z</time>
      </trkpt>
      <trkpt lat="46.72767" lon="6.29112">
        <ele>1152.8</ele>
        <time>2019-06-05T06:59:40Z</time>
      </trkpt>
      <trkpt lat="46.72881" lon="6.28671">
        <ele>1151.7</ele>
        <time>2019-06-05T07:11:31Z</time>
      </trkpt>
      <trkpt lat="46.72883" lon="6.28284">
        <ele>1153.8</ele>
        <time>2019-06-05T07:12:36Z</time>
      </trkpt>
      <trkpt lat="46.72943" lon="6.27974">
        <ele>1153.2</ele>
        <time>2019-06-05T07:13:36Z</time>
      </trkpt>
      <trkpt lat="46.72914" lon="6.27814">
        <ele>1152.2</ele>
        <time>2019-06-05T07:15:32Z</time>
      </trkpt>
      <trkpt lat="46.72852" lon="6.27697">
        <ele>1153.7</ele>
        <time>2019-06-05T07:16:04Z</time>
      </trkpt>
      <trkpt lat="46.72626" lon="6.27421">
        <ele>1157.8</ele>
        <time>2019-06-05T07:18:29Z</time>
      </trkpt>
      <trkpt lat="46.72614" lon="6.27231">
        <ele>1156.2</ele>
        <time>2019-06-05T07:19:45Z</time>
      </trkpt>
      <trkpt lat="46.7264" lon="6.27066">
        <ele>1152.2</ele>
        <time>2019-06-05T07:20:12Z</time>
      </trkpt>
      <trkpt lat="46.72632" lon="6.26873">
        <ele>1146.7</ele>
        <time>2019-06-05T07:20:42Z</time>
      </trkpt>
      <trkpt lat="46.72585" lon="6.26734">
        <ele>1143.1</ele>
        <time>2019-06-05T07:21:04Z</time>
      </trkpt>
      <trkpt lat="46.72557" lon="6.26366">
        <ele>1128</ele>
        <time>2019-06-05T07:22:09Z</time>
      </trkpt>
      <trkpt lat="46.72437" lon="6.26139">
        <ele>1134.4</ele>
        <time>2019-06-05T07:23:13Z</time>
      </trkpt>
      <trkpt lat="46.72241" lon="6.26019">
        <ele>1147.8</ele>
        <time>2019-06-05T07:24:31Z</time>
      </trkpt>
      <trkpt lat="46.72164" lon="6.25938">
        <ele>1153.5</ele>
        <time>2019-06-05T07:25:04Z</time>
      </trkpt>
      <trkpt lat="46.72044" lon="6.25695">
        <ele>1152.9</ele>
        <time>2019-06-05T07:25:41Z</time>
      </trkpt>
      <trkpt lat="46.71977" lon="6.25388">
        <ele>1137</ele>
        <time>2019-06-05T07:26:15Z</time>
      </trkpt>
      <trkpt lat="46.71871" lon="6.25121">
        <ele>1117.5</ele>
        <time>2019-06-05T07:26:55Z</time>
      </trkpt>
      <trkpt lat="46.71629" lon="6.24856">
        <ele>1137</ele>
        <time>2019-06-05T07:29:53Z</time>
      </trkpt>
      <trkpt lat="46.71442" lon="6.24517">
        <ele>1145.4</ele>
        <time>2019-06-05T07:31:34Z</time>
      </trkpt>
      <trkpt lat="46.71341" lon="6.24461">
        <ele>1144.2</ele>
        <time>2019-06-05T07:32:32Z</time>
      </trkpt>
      <trkpt lat="46.71268" lon="6.24369">
        <ele>1144.7</ele>
        <time>2019-06-05T07:35:46Z</time>
      </trkpt>
      <trkpt lat="46.71184" lon="6.24085">
        <ele>1153.4</ele>
        <time>2019-06-05T07:38:04Z</time>
      </trkpt>
      <trkpt lat="46.71127" lon="6.23973">
        <ele>1152</ele>
        <time>2019-06-05T07:38:33Z</time>
      </trkpt>
      <trkpt lat="46.71158" lon="6.23606">
        <ele>1141.7</ele>
        <time>2019-06-05T07:45:39Z</time>
      </trkpt>
      <trkpt lat="46.71104" lon="6.23275">
        <ele>1121.7</ele>
        <time>2019-06-05T07:46:07Z</time>
      </trkpt>
      <trkpt lat="46.711" lon="6.23081">
        <ele>1110</ele>
        <time>2019-06-05T07:46:22Z</time>
      </trkpt>
      <trkpt lat="46.71047" lon="6.22752">
        <ele>1083</ele>
        <time>2019-06-05T07:47:01Z</time>
      </trkpt>
      <trkpt lat="46.70954" lon="6.22473">
        <ele>1072.4</ele>
        <time>2019-06-05T07:47:48Z</time>
      </trkpt>
      <trkpt lat="46.70899" lon="6.22145">
        <ele>1071.1</ele>
        <time>2019-06-05T07:48:53Z</time>
      </trkpt>
      <trkpt lat="46.70813" lon="6.21845">
        <ele>1060.7</ele>
        <time>2019-06-05T07:49:36Z</time>
      </trkpt>
      <trkpt lat="46.70707" lon="6.21188">
        <ele>1036.3</ele>
        <time>2019-06-05T07:50:34Z</time>
      </trkpt>
      <trkpt lat="46.7081" lon="6.21117">
        <ele>1025.6</ele>
        <time>2019-06-05T07:50:56Z</time>
      </trkpt>
      <trkpt lat="46.70877" lon="6.21005">
        <ele>1013.1</ele>
        <time>2019-06-05T07:51:22Z</time>
      </trkpt>
      <trkpt lat="46.70965" lon="6.20728">
        <ele>1013.1</ele>
        <time>2019-06-05T07:52:13Z</time>
      </trkpt>
      <trkpt lat="46.70992" lon="6.20375">
        <ele>1013</ele>
        <time>2019-06-05T07:52:57Z</time>
      </trkpt>
      <trkpt lat="46.71129" lon="6.2015">
        <ele>1009.4</ele>
        <time>2019-06-05T07:53:27Z</time>
      </trkpt>
      <trkpt lat="46.71119" lon="6.19961">
        <ele>1009.9</ele>
        <time>2019-06-05T07:53:53Z</time>
      </trkpt>
      <trkpt lat="46.71006" lon="6.19703">
        <ele>1005.9</ele>
        <time>2019-06-05T07:54:27Z</time>
      </trkpt>
      <trkpt lat="46.71026" lon="6.19532">
        <ele>1003.8</ele>
        <time>2019-06-05T07:54:47Z</time>
      </trkpt>
      <trkpt lat="46.71077" lon="6.19411">
        <ele>1014.3</ele>
        <time>2019-06-05T07:59:21Z</time>
      </trkpt>
      <trkpt lat="46.71051" lon="6.19247">
        <ele>1016.2</ele>
        <time>2019-06-05T08:00:44Z</time>
      </trkpt>
      <trkpt lat="46.71005" lon="6.19662">
        <ele>1012</ele>
        <time>2019-06-05T08:10:17Z</time>
      </trkpt>
      <trkpt lat="46.71043" lon="6.198">
        <ele>1013.6</ele>
        <time>2019-06-05T08:10:47Z</time>
      </trkpt>
      <trkpt lat="46.71008" lon="6.19946">
        <ele>1015.8</ele>
        <time>2019-06-05T08:11:48Z</time>
      </trkpt>
      <trkpt lat="46.70845" lon="6.20119">
        <ele>1011.3</ele>
        <time>2019-06-05T08:12:29Z</time>
      </trkpt>
      <trkpt lat="46.70817" lon="6.20276">
        <ele>1008.9</ele>
        <time>2019-06-05T08:12:52Z</time>
      </trkpt>
      <trkpt lat="46.70815" lon="6.20481">
        <ele>1007.3</ele>
        <time>2019-06-05T08:13:25Z</time>
      </trkpt>
      <trkpt lat="46.70773" lon="6.20626">
        <ele>1007.4</ele>
        <time>2019-06-05T08:13:50Z</time>
      </trkpt>
      <trkpt lat="46.70706" lon="6.20735">
        <ele>1007.2</ele>
        <time>2019-06-05T08:14:13Z</time>
      </trkpt>
      <trkpt lat="46.70596" lon="6.20772">
        <ele>1008.5</ele>
        <time>2019-06-05T08:14:53Z</time>
      </trkpt>
      <trkpt lat="46.70587" lon="6.20771">
        <ele>1013.4</ele>
        <time>2019-06-05T08:42:20Z</time>
      </trkpt>
      <trkpt lat="46.70504" lon="6.20485">
        <ele>1011.3</ele>
        <time>2019-06-05T08:43:24Z</time>
      </trkpt>
      <trkpt lat="46.70328" lon="6.19927">
        <ele>1013.3</ele>
        <time>2019-06-05T08:44:56Z</time>
      </trkpt>
      <trkpt lat="46.69966" lon="6.1902">
        <ele>1018.4</ele>
        <time>2019-06-05T08:47:48Z</time>
      </trkpt>
      <trkpt lat="46.69667" lon="6.18634">
        <ele>1024.8</ele>
        <time>2019-06-05T08:49:31Z</time>
      </trkpt>
      <trkpt lat="46.69466" lon="6.18512">
        <ele>1027.2</ele>
        <time>2019-06-05T08:50:30Z</time>
      </trkpt>
      <trkpt lat="46.69533" lon="6.18414">
        <ele>1027.9</ele>
        <time>2019-06-05T08:51:03Z</time>
      </trkpt>
      <trkpt lat="46.69538" lon="6.18214">
        <ele>1031.3</ele>
        <time>2019-06-05T08:51:47Z</time>
      </trkpt>
      <trkpt lat="46.69477" lon="6.18096">
        <ele>1032.4</ele>
        <time>2019-06-05T08:52:20Z</time>
      </trkpt>
      <trkpt lat="46.69304" lon="6.17932">
        <ele>1046.6</ele>
        <time>2019-06-05T08:54:02Z</time>
      </trkpt>
      <trkpt lat="46.69315" lon="6.17748">
        <ele>1049.5</ele>
        <time>2019-06-05T08:55:24Z</time>
      </trkpt>
      <trkpt lat="46.69437" lon="6.17726">
        <ele>1060</ele>
        <time>2019-06-05T08:56:38Z</time>
      </trkpt>
      <trkpt lat="46.69469" lon="6.17577">
        <ele>1057.3</ele>
        <time>2019-06-05T08:58:11Z</time>
      </trkpt>
      <trkpt lat="46.69423" lon="6.17449">
        <ele>1054.8</ele>
        <time>2019-06-05T08:58:33Z</time>
      </trkpt>
      <trkpt lat="46.6934" lon="6.17369">
        <ele>1060.8</ele>
        <time>2019-06-05T08:59:25Z</time>
      </trkpt>
      <trkpt lat="46.69062" lon="6.16941">
        <ele>1077.7</ele>
        <time>2019-06-05T09:01:41Z</time>
      </trkpt>
      <trkpt lat="46.68943" lon="6.167">
        <ele>1088.9</ele>
        <time>2019-06-05T09:02:57Z</time>
      </trkpt>
      <trkpt lat="46.68766" lon="6.16151">
        <ele>1070.8</ele>
        <time>2019-06-05T09:06:34Z</time>
      </trkpt>
      <trkpt lat="46.68752" lon="6.1578">
        <ele>1050.5</ele>
        <time>2019-06-05T09:08:31Z</time>
      </trkpt>
      <trkpt lat="46.68571" lon="6.15024">
        <ele>1052.3</ele>
        <time>2019-06-05T09:10:57Z</time>
      </trkpt>
      <trkpt lat="46.68384" lon="6.14501">
        <ele>1059.5</ele>
        <time>2019-06-05T09:13:58Z</time>
      </trkpt>
      <trkpt lat="46.68304" lon="6.14028">
        <ele>1081.5</ele>
        <time>2019-06-05T09:16:43Z</time>
      </trkpt>
      <trkpt lat="46.68214" lon="6.13754">
        <ele>1083.7</ele>
        <time>2019-06-05T09:19:16Z</time>
      </trkpt>
      <trkpt lat="46.68146" lon="6.13656">
        <ele>1081.4</ele>
        <time>2019-06-05T09:19:34Z</time>
      </trkpt>
      <trkpt lat="46.6804" lon="6.13402">
        <ele>1070.7</ele>
        <time>2019-06-05T09:20:29Z</time>
      </trkpt>
      <trkpt lat="46.67965" lon="6.13312">
        <ele>1070.1</ele>
        <time>2019-06-05T09:20:58Z</time>
      </trkpt>
      <trkpt lat="46.67889" lon="6.13407">
        <ele>1067.9</ele>
        <time>2019-06-05T09:21:31Z</time>
      </trkpt>
      <trkpt lat="46.67724" lon="6.13763">
        <ele>1073.6</ele>
        <time>2019-06-05T09:23:10Z</time>
      </trkpt>
      <trkpt lat="46.67631" lon="6.13831">
        <ele>1075.3</ele>
        <time>2019-06-05T09:23:43Z</time>
      </trkpt>
      <trkpt lat="46.67542" lon="6.13766">
        <ele>1077.2</ele>
        <time>2019-06-05T09:24:13Z</time>
      </trkpt>
      <trkpt lat="46.67419" lon="6.13742">
        <ele>1082.5</ele>
        <time>2019-06-05T09:25:12Z</time>
      </trkpt>
      <trkpt lat="46.67388" lon="6.13582">
        <ele>1086</ele>
        <time>2019-06-05T09:31:21Z</time>
      </trkpt>
      <trkpt lat="46.67285" lon="6.13311">
        <ele>1088.5</ele>
        <time>2019-06-05T09:33:43Z</time>
      </trkpt>
      <trkpt lat="46.67221" lon="6.13201">
        <ele>1089.3</ele>
        <time>2019-06-05T09:34:18Z</time>
      </trkpt>
      <trkpt lat="46.6696" lon="6.12981">
        <ele>1101.2</ele>
        <time>2019-06-05T09:35:58Z</time>
      </trkpt>
      <trkpt lat="46.66641" lon="6.12435">
        <ele>1130.5</ele>
        <time>2019-06-05T09:46:55Z</time>
      </trkpt>
      <trkpt lat="46.6654" lon="6.12164">
        <ele>1125.7</ele>
        <time>2019-06-05T09:47:45Z</time>
      </trkpt>
      <trkpt lat="46.66487" lon="6.1183">
        <ele>1119.2</ele>
        <time>2019-06-05T09:48:52Z</time>
      </trkpt>
      <trkpt lat="46.66422" lon="6.11727">
        <ele>1117</ele>
        <time>2019-06-05T09:49:19Z</time>
      </trkpt>
      <trkpt lat="46.66313" lon="6.11761">
        <ele>1124.9</ele>
        <time>2019-06-05T09:50:30Z</time>
      </trkpt>
      <trkpt lat="46.66211" lon="6.11713">
        <ele>1134.9</ele>
        <time>2019-06-05T09:51:28Z</time>
      </trkpt>
      <trkpt lat="46.66215" lon="6.11513">
        <ele>1129.2</ele>
        <time>2019-06-05T09:52:36Z</time>
      </trkpt>
      <trkpt lat="46.66145" lon="6.11219">
        <ele>1126.9</ele>
        <time>2019-06-05T09:53:52Z</time>
      </trkpt>
      <trkpt lat="46.65849" lon="6.1063">
        <ele>1140.6</ele>
        <time>2019-06-05T09:57:23Z</time>
      </trkpt>
      <trkpt lat="46.65933" lon="6.10541">
        <ele>1138.1</ele>
        <time>2019-06-05T10:01:45Z</time>
      </trkpt>
      <trkpt lat="46.65913" lon="6.10357">
        <ele>1132.5</ele>
        <time>2019-06-05T10:02:05Z</time>
      </trkpt>
      <trkpt lat="46.65959" lon="6.10222">
        <ele>1118.5</ele>
        <time>2019-06-05T10:02:31Z</time>
      </trkpt>
      <trkpt lat="46.66054" lon="6.10158">
        <ele>1110.8</ele>
        <time>2019-06-05T10:02:51Z</time>
      </trkpt>
      <trkpt lat="46.66052" lon="6.09965">
        <ele>1109.8</ele>
        <time>2019-06-05T10:03:58Z</time>
      </trkpt>
      <trkpt lat="46.65942" lon="6.09724">
        <ele>1114.9</ele>
        <time>2019-06-05T10:05:10Z</time>
      </trkpt>
      <trkpt lat="46.65623" lon="6.09179">
        <ele>1108.2</ele>
        <time>2019-06-05T10:07:03Z</time>
      </trkpt>
      <trkpt lat="46.6539" lon="6.08708">
        <ele>1102.3</ele>
        <time>2019-06-05T10:08:22Z</time>
      </trkpt>
      <trkpt lat="46.653" lon="6.08621">
        <ele>1095.8</ele>
        <time>2019-06-05T10:08:38Z</time>
      </trkpt>
      <trkpt lat="46.65243" lon="6.08509">
        <ele>1087.6</ele>
        <time>2019-06-05T10:08:55Z</time>
      </trkpt>
      <trkpt lat="46.65137" lon="6.08555">
        <ele>1095.5</ele>
        <time>2019-06-05T10:10:30Z</time>
      </trkpt>
      <trkpt lat="46.65071" lon="6.08662">
        <ele>1091.4</ele>
        <time>2019-06-05T10:10:49Z</time>
      </trkpt>
      <trkpt lat="46.64989" lon="6.0858">
        <ele>1097.1</ele>
        <time>2019-06-05T10:12:08Z</time>
      </trkpt>
      <trkpt lat="46.64864" lon="6.08562">
        <ele>1090.2</ele>
        <time>2019-06-05T10:13:09Z</time>
      </trkpt>
      <trkpt lat="46.64781" lon="6.08484">
        <ele>1094.3</ele>
        <time>2019-06-05T10:13:58Z</time>
      </trkpt>
      <trkpt lat="46.6438" lon="6.08044">
        <ele>1101.7</ele>
        <time>2019-06-05T11:20:44Z</time>
      </trkpt>
      <trkpt lat="46.64129" lon="6.07611">
        <ele>1102.7</ele>
        <time>2019-06-05T11:23:59Z</time>
      </trkpt>
      <trkpt lat="46.64052" lon="6.0753">
        <ele>1103.1</ele>
        <time>2019-06-05T11:24:23Z</time>
      </trkpt>
      <trkpt lat="46.6385" lon="6.07422">
        <ele>1104.8</ele>
        <time>2019-06-05T11:25:28Z</time>
      </trkpt>
      <trkpt lat="46.6382" lon="6.07258">
        <ele>1112.8</ele>
        <time>2019-06-05T11:26:16Z</time>
      </trkpt>
      <trkpt lat="46.63763" lon="6.07138">
        <ele>1118.1</ele>
        <time>2019-06-05T11:26:56Z</time>
      </trkpt>
      <trkpt lat="46.63505" lon="6.07148">
        <ele>1138.7</ele>
        <time>2019-06-05T11:28:58Z</time>
      </trkpt>
      <trkpt lat="46.63402" lon="6.071">
        <ele>1144.8</ele>
        <time>2019-06-05T11:31:22Z</time>
      </trkpt>
      <trkpt lat="46.63328" lon="6.06997">
        <ele>1142</ele>
        <time>2019-06-05T11:31:38Z</time>
      </trkpt>
      <trkpt lat="46.63304" lon="6.06837">
        <ele>1138</ele>
        <time>2019-06-05T11:31:54Z</time>
      </trkpt>
      <trkpt lat="46.63104" lon="6.06727">
        <ele>1125.4</ele>
        <time>2019-06-05T11:32:47Z</time>
      </trkpt>
      <trkpt lat="46.63035" lon="6.06627">
        <ele>1126.6</ele>
        <time>2019-06-05T11:33:27Z</time>
      </trkpt>
      <trkpt lat="46.6294" lon="6.06683">
        <ele>1126.6</ele>
        <time>2019-06-05T11:33:51Z</time>
      </trkpt>
      <trkpt lat="46.62655" lon="6.06503">
        <ele>1120.8</ele>
        <time>2019-06-05T11:35:00Z</time>
      </trkpt>
      <trkpt lat="46.62582" lon="6.06404">
        <ele>1120.7</ele>
        <time>2019-06-05T11:35:23Z</time>
      </trkpt>
      <trkpt lat="46.62448" lon="6.06408">
        <ele>1108.4</ele>
        <time>2019-06-05T11:37:11Z</time>
      </trkpt>
      <trkpt lat="46.62306" lon="6.06608">
        <ele>1102.6</ele>
        <time>2019-06-05T11:38:03Z</time>
      </trkpt>
      <trkpt lat="46.62119" lon="6.0675">
        <ele>1109.1</ele>
        <time>2019-06-05T11:39:17Z</time>
      </trkpt>
      <trkpt lat="46.62045" lon="6.06839">
        <ele>1116.5</ele>
        <time>2019-06-05T11:40:03Z</time>
      </trkpt>
      <trkpt lat="46.61999" lon="6.06984">
        <ele>1124.4</ele>
        <time>2019-06-05T11:40:53Z</time>
      </trkpt>
      <trkpt lat="46.61858" lon="6.07173">
        <ele>1138.6</ele>
        <time>2019-06-05T11:42:16Z</time>
      </trkpt>
      <trkpt lat="46.61637" lon="6.07248">
        <ele>1152.5</ele>
        <time>2019-06-05T11:43:43Z</time>
      </trkpt>
      <trkpt lat="46.61475" lon="6.07433">
        <ele>1151.8</ele>
        <time>2019-06-05T11:44:27Z</time>
      </trkpt>
      <trkpt lat="46.61303" lon="6.07793">
        <ele>1143.9</ele>
        <time>2019-06-05T11:45:44Z</time>
      </trkpt>
      <trkpt lat="46.61221" lon="6.08068">
        <ele>1145.2</ele>
        <time>2019-06-05T11:46:36Z</time>
      </trkpt>
      <trkpt lat="46.61194" lon="6.08238">
        <ele>1143.8</ele>
        <time>2019-06-05T11:47:06Z</time>
      </trkpt>
      <trkpt lat="46.60998" lon="6.08566">
        <ele>1141.2</ele>
        <time>2019-06-05T11:48:43Z</time>
      </trkpt>
      <trkpt lat="46.6081" lon="6.08691">
        <ele>1144</ele>
        <time>2019-06-05T11:53:28Z</time>
      </trkpt>
      <trkpt lat="46.60739" lon="6.08794">
        <ele>1142.2</ele>
        <time>2019-06-05T11:53:47Z</time>
      </trkpt>
      <trkpt lat="46.60626" lon="6.09045">
        <ele>1139.6</ele>
        <time>2019-06-05T11:54:33Z</time>
      </trkpt>
      <trkpt lat="46.60546" lon="6.09123">
        <ele>1139.2</ele>
        <time>2019-06-05T11:54:55Z</time>
      </trkpt>
      <trkpt lat="46.60306" lon="6.09168">
        <ele>1143</ele>
        <time>2019-06-05T11:55:52Z</time>
      </trkpt>
      <trkpt lat="46.59962" lon="6.09481">
        <ele>1144.7</ele>
        <time>2019-06-05T11:57:26Z</time>
      </trkpt>
      <trkpt lat="46.59757" lon="6.10002">
        <ele>1154</ele>
        <time>2019-06-05T12:00:19Z</time>
      </trkpt>
      <trkpt lat="46.59639" lon="6.10639">
        <ele>1166.3</ele>
        <time>2019-06-05T12:02:32Z</time>
      </trkpt>
      <trkpt lat="46.59644" lon="6.11024">
        <ele>1161.5</ele>
        <time>2019-06-05T12:03:20Z</time>
      </trkpt>
      <trkpt lat="46.59546" lon="6.10964">
        <ele>1158.9</ele>
        <time>2019-06-05T12:05:31Z</time>
      </trkpt>
      <trkpt lat="46.59313" lon="6.10696">
        <ele>1167.8</ele>
        <time>2019-06-05T12:08:34Z</time>
      </trkpt>
      <trkpt lat="46.58945" lon="6.10428">
        <ele>1178.1</ele>
        <time>2019-06-05T12:10:18Z</time>
      </trkpt>
      <trkpt lat="46.58743" lon="6.1032">
        <ele>1182.9</ele>
        <time>2019-06-05T12:11:12Z</time>
      </trkpt>
      <trkpt lat="46.5866" lon="6.1024">
        <ele>1187.1</ele>
        <time>2019-06-05T12:11:39Z</time>
      </trkpt>
      <trkpt lat="46.58547" lon="6.10284">
        <ele>1194.8</ele>
        <time>2019-06-05T12:15:44Z</time>
      </trkpt>
      <trkpt lat="46.58471" lon="6.1038">
        <ele>1199.4</ele>
        <time>2019-06-05T12:16:19Z</time>
      </trkpt>
      <trkpt lat="46.58384" lon="6.10661">
        <ele>1204.7</ele>
        <time>2019-06-05T12:21:16Z</time>
      </trkpt>
      <trkpt lat="46.58302" lon="6.10735">
        <ele>1204.9</ele>
        <time>2019-06-05T12:21:38Z</time>
      </trkpt>
      <trkpt lat="46.58182" lon="6.10709">
        <ele>1206.3</ele>
        <time>2019-06-05T12:22:06Z</time>
      </trkpt>
      <trkpt lat="46.5801" lon="6.10553">
        <ele>1205</ele>
        <time>2019-06-05T12:22:39Z</time>
      </trkpt>
      <trkpt lat="46.57879" lon="6.10571">
        <ele>1206.8</ele>
        <time>2019-06-05T12:23:12Z</time>
      </trkpt>
      <trkpt lat="46.57764" lon="6.10523">
        <ele>1213.4</ele>
        <time>2019-06-05T12:23:54Z</time>
      </trkpt>
      <trkpt lat="46.57627" lon="6.1033">
        <ele>1219.2</ele>
        <time>2019-06-05T12:24:48Z</time>
      </trkpt>
      <trkpt lat="46.57543" lon="6.10256">
        <ele>1217.1</ele>
        <time>2019-06-05T12:25:02Z</time>
      </trkpt>
      <trkpt lat="46.57484" lon="6.09929">
        <ele>1213.1</ele>
        <time>2019-06-05T12:26:06Z</time>
      </trkpt>
      <trkpt lat="46.57438" lon="6.09795">
        <ele>1209.2</ele>
        <time>2019-06-05T12:26:26Z</time>
      </trkpt>
      <trkpt lat="46.57331" lon="6.09757">
        <ele>1204.8</ele>
        <time>2019-06-05T12:26:42Z</time>
      </trkpt>
      <trkpt lat="46.57151" lon="6.09427">
        <ele>1192.2</ele>
        <time>2019-06-05T12:33:22Z</time>
      </trkpt>
      <trkpt lat="46.57" lon="6.09245">
        <ele>1184.9</ele>
        <time>2019-06-05T12:34:04Z</time>
      </trkpt>
      <trkpt lat="46.56899" lon="6.09178">
        <ele>1187.1</ele>
        <time>2019-06-05T12:34:44Z</time>
      </trkpt>
      <trkpt lat="46.56728" lon="6.08826">
        <ele>1190.5</ele>
        <time>2019-06-05T12:36:08Z</time>
      </trkpt>
      <trkpt lat="46.56624" lon="6.08567">
        <ele>1184.7</ele>
        <time>2019-06-05T12:36:53Z</time>
      </trkpt>
      <trkpt lat="46.5662" lon="6.08374">
        <ele>1185.3</ele>
        <time>2019-06-05T12:37:58Z</time>
      </trkpt>
      <trkpt lat="46.56721" lon="6.08117">
        <ele>1180.3</ele>
        <time>2019-06-05T12:38:36Z</time>
      </trkpt>
      <trkpt lat="46.56684" lon="6.07968">
        <ele>1180.8</ele>
        <time>2019-06-05T12:39:47Z</time>
      </trkpt>
      <trkpt lat="46.5648" lon="6.07858">
        <ele>1177.4</ele>
        <time>2019-06-05T12:47:01Z</time>
      </trkpt>
      <trkpt lat="46.56361" lon="6.07832">
        <ele>1171.7</ele>
        <time>2019-06-05T12:47:15Z</time>
      </trkpt>
      <trkpt lat="46.56306" lon="6.07703">
        <ele>1171.6</ele>
        <time>2019-06-05T12:47:47Z</time>
      </trkpt>
      <trkpt lat="46.56219" lon="6.07781">
        <ele>1182.9</ele>
        <time>2019-06-05T12:49:54Z</time>
      </trkpt>
      <trkpt lat="46.56171" lon="6.07904">
        <ele>1192.6</ele>
        <time>2019-06-05T12:50:49Z</time>
      </trkpt>
      <trkpt lat="46.56137" lon="6.08058">
        <ele>1202.5</ele>
        <time>2019-06-05T12:51:50Z</time>
      </trkpt>
      <trkpt lat="46.56131" lon="6.08442">
        <ele>1227.6</ele>
        <time>2019-06-05T12:54:15Z</time>
      </trkpt>
      <trkpt lat="46.56062" lon="6.08542">
        <ele>1236</ele>
        <time>2019-06-05T12:55:06Z</time>
      </trkpt>
      <trkpt lat="46.55953" lon="6.08494">
        <ele>1244.9</ele>
        <time>2019-06-05T12:56:07Z</time>
      </trkpt>
      <trkpt lat="46.55867" lon="6.08419">
        <ele>1253.7</ele>
        <time>2019-06-05T12:56:58Z</time>
      </trkpt>
      <trkpt lat="46.55754" lon="6.08385">
        <ele>1263.7</ele>
        <time>2019-06-05T12:57:59Z</time>
      </trkpt>
      <trkpt lat="46.55638" lon="6.08414">
        <ele>1290</ele>
        <time>2019-06-05T13:00:33Z</time>
      </trkpt>
      <trkpt lat="46.55446" lon="6.08554">
        <ele>1305.8</ele>
        <time>2019-06-05T13:02:08Z</time>
      </trkpt>
      <trkpt lat="46.55384" lon="6.08657">
        <ele>1309.8</ele>
        <time>2019-06-05T13:14:45Z</time>
      </trkpt>
      <trkpt lat="46.55295" lon="6.08725">
        <ele>1308.8</ele>
        <time>2019-06-05T13:15:04Z</time>
      </trkpt>
      <trkpt lat="46.54988" lon="6.08885">
        <ele>1306.5</ele>
        <time>2019-06-05T13:16:02Z</time>
      </trkpt>
      <trkpt lat="46.54666" lon="6.09241">
        <ele>1328.8</ele>
        <time>2019-06-05T13:17:51Z</time>
      </trkpt>
      <trkpt lat="46.54559" lon="6.09498">
        <ele>1305.3</ele>
        <time>2019-06-05T13:21:14Z</time>
      </trkpt>
      <trkpt lat="46.5455" lon="6.0968">
        <ele>1303.3</ele>
        <time>2019-06-05T13:21:34Z</time>
      </trkpt>
      <trkpt lat="46.54512" lon="6.09831">
        <ele>1299.7</ele>
        <time>2019-06-05T13:22:21Z</time>
      </trkpt>
      <trkpt lat="46.54374" lon="6.10047">
        <ele>1294.3</ele>
        <time>2019-06-05T13:23:02Z</time>
      </trkpt>
      <trkpt lat="46.54081" lon="6.10219">
        <ele>1284.2</ele>
        <time>2019-06-05T13:25:27Z</time>
      </trkpt>
      <trkpt lat="46.5396" lon="6.1025">
        <ele>1287</ele>
        <time>2019-06-05T13:26:06Z</time>
      </trkpt>
      <trkpt lat="46.53754" lon="6.10152">
        <ele>1293.2</ele>
        <time>2019-06-05T13:26:59Z</time>
      </trkpt>
      <trkpt lat="46.53642" lon="6.10184">
        <ele>1292.9</ele>
        <time>2019-06-05T13:27:27Z</time>
      </trkpt>
      <trkpt lat="46.53562" lon="6.10097">
        <ele>1296.2</ele>
        <time>2019-06-05T13:31:36Z</time>
      </trkpt>
      <trkpt lat="46.53431" lon="6.10093">
        <ele>1304.2</ele>
        <time>2019-06-05T13:32:32Z</time>
      </trkpt>
      <trkpt lat="46.53178" lon="6.09658">
        <ele>1311.2</ele>
        <time>2019-06-05T13:34:26Z</time>
      </trkpt>
      <trkpt lat="46.52868" lon="6.09296">
        <ele>1336.6</ele>
        <time>2019-06-05T13:43:48Z</time>
      </trkpt>
      <trkpt lat="46.52812" lon="6.09176">
        <ele>1336</ele>
        <time>2019-06-05T13:44:00Z</time>
      </trkpt>
      <trkpt lat="46.52586" lon="6.08916">
        <ele>1324.4</ele>
        <time>2019-06-05T13:44:55Z</time>
      </trkpt>
      <trkpt lat="46.52446" lon="6.08721">
        <ele>1325.9</ele>
        <time>2019-06-05T13:45:53Z</time>
      </trkpt>
      <trkpt lat="46.52395" lon="6.08601">
        <ele>1328.8</ele>
        <time>2019-06-05T13:46:27Z</time>
      </trkpt>
      <trkpt lat="46.52094" lon="6.08227">
        <ele>1322.8</ele>
        <time>2019-06-05T13:47:50Z</time>
      </trkpt>
      <trkpt lat="46.51898" lon="6.07911">
        <ele>1315.3</ele>
        <time>2019-06-05T13:48:45Z</time>
      </trkpt>
      <trkpt lat="46.51773" lon="6.07893">
        <ele>1324.5</ele>
        <time>2019-06-05T13:49:48Z</time>
      </trkpt>
      <trkpt lat="46.51681" lon="6.07833">
        <ele>1331.8</ele>
        <time>2019-06-05T13:50:23Z</time>
      </trkpt>
      <trkpt lat="46.51599" lon="6.07915">
        <ele>1347.9</ele>
        <time>2019-06-05T13:51:21Z</time>
      </trkpt>
      <trkpt lat="46.51462" lon="6.07907">
        <ele>1350.5</ele>
        <time>2019-06-05T13:52:33Z</time>
      </trkpt>
      <trkpt lat="46.51327" lon="6.07702">
        <ele>1356.7</ele>
        <time>2019-06-05T13:53:37Z</time>
      </trkpt>
      <trkpt lat="46.5124" lon="6.07618">
        <ele>1355</ele>
        <time>2019-06-05T13:54:02Z</time>
      </trkpt>
      <trkpt lat="46.51189" lon="6.07499">
        <ele>1352.3</ele>
        <time>2019-06-05T13:54:28Z</time>
      </trkpt>
      <trkpt lat="46.51041" lon="6.07292">
        <ele>1352.9</ele>
        <time>2019-06-05T13:55:09Z</time>
      </trkpt>
      <trkpt lat="46.50929" lon="6.07031">
        <ele>1335.4</ele>
        <time>2019-06-05T13:59:04Z</time>
      </trkpt>
      <trkpt lat="46.50973" lon="6.07162">
        <ele>1331.8</ele>
        <time>2019-06-05T14:08:16Z</time>
      </trkpt>
      <trkpt lat="46.51177" lon="6.07474">
        <ele>1350.6</ele>
        <time>2019-06-05T14:09:51Z</time>
      </trkpt>
      <trkpt lat="46.51227" lon="6.07604">
        <ele>1352</ele>
        <time>2019-06-05T14:10:11Z</time>
      </trkpt>
      <trkpt lat="46.51314" lon="6.07675">
        <ele>1350.1</ele>
        <time>2019-06-05T14:10:34Z</time>
      </trkpt>
      <trkpt lat="46.51532" lon="6.07982">
        <ele>1346.6</ele>
        <time>2019-06-05T14:13:52Z</time>
      </trkpt>
      <trkpt lat="46.5161" lon="6.07884">
        <ele>1346.8</ele>
        <time>2019-06-05T14:14:21Z</time>
      </trkpt>
      <trkpt lat="46.51744" lon="6.0788">
        <ele>1338.9</ele>
        <time>2019-06-05T14:14:51Z</time>
      </trkpt>
      <trkpt lat="46.51836" lon="6.07819">
        <ele>1329.3</ele>
        <time>2019-06-05T14:15:11Z</time>
      </trkpt>
      <trkpt lat="46.52036" lon="6.08147">
        <ele>1312.5</ele>
        <time>2019-06-05T14:16:07Z</time>
      </trkpt>
      <trkpt lat="46.52396" lon="6.08604">
        <ele>1321.2</ele>
        <time>2019-06-05T14:18:06Z</time>
      </trkpt>
      <trkpt lat="46.52451" lon="6.08734">
        <ele>1322.4</ele>
        <time>2019-06-05T14:18:31Z</time>
      </trkpt>
      <trkpt lat="46.5283" lon="6.092">
        <ele>1324.1</ele>
        <time>2019-06-05T14:21:01Z</time>
      </trkpt>
      <trkpt lat="46.52921" lon="6.09469">
        <ele>1336.8</ele>
        <time>2019-06-05T14:23:25Z</time>
      </trkpt>
      <trkpt lat="46.52769" lon="6.09649">
        <ele>1346.3</ele>
        <time>2019-06-05T14:24:53Z</time>
      </trkpt>
      <trkpt lat="46.52802" lon="6.10018">
        <ele>1345.5</ele>
        <time>2019-06-05T14:26:48Z</time>
      </trkpt>
      <trkpt lat="46.5278" lon="6.10186">
        <ele>1338</ele>
        <time>2019-06-05T14:27:04Z</time>
      </trkpt>
      <trkpt lat="46.52627" lon="6.10363">
        <ele>1328.9</ele>
        <time>2019-06-05T14:27:42Z</time>
      </trkpt>
      <trkpt lat="46.52605" lon="6.10535">
        <ele>1320</ele>
        <time>2019-06-05T14:28:00Z</time>
      </trkpt>
      <trkpt lat="46.52469" lon="6.10538">
        <ele>1297.7</ele>
        <time>2019-06-05T14:28:37Z</time>
      </trkpt>
      <trkpt lat="46.5226" lon="6.10407">
        <ele>1275.5</ele>
        <time>2019-06-05T14:29:02Z</time>
      </trkpt>
      <trkpt lat="46.52246" lon="6.10581">
        <ele>1247</ele>
        <time>2019-06-05T14:29:36Z</time>
      </trkpt>
      <trkpt lat="46.52363" lon="6.11041">
        <ele>1212.4</ele>
        <time>2019-06-05T14:30:14Z</time>
      </trkpt>
      <trkpt lat="46.52502" lon="6.11432">
        <ele>1169.1</ele>
        <time>2019-06-05T14:32:04Z</time>
      </trkpt>
      <trkpt lat="46.52635" lon="6.11659">
        <ele>1171.5</ele>
        <time>2019-06-05T14:32:48Z</time>
      </trkpt>
      <trkpt lat="46.52716" lon="6.1174">
        <ele>1170.1</ele>
        <time>2019-06-05T14:33:02Z</time>
      </trkpt>
      <trkpt lat="46.52665" lon="6.1186">
        <ele>1167</ele>
        <time>2019-06-05T14:33:15Z</time>
      </trkpt>
      <trkpt lat="46.52451" lon="6.12141">
        <ele>1155.4</ele>
        <time>2019-06-05T14:33:55Z</time>
      </trkpt>
      <trkpt lat="46.52255" lon="6.12472">
        <ele>1160.9</ele>
        <time>2019-06-05T14:35:19Z</time>
      </trkpt>
      <trkpt lat="46.52162" lon="6.12393">
        <ele>1165.4</ele>
        <time>2019-06-05T14:37:21Z</time>
      </trkpt>
      <trkpt lat="46.51319" lon="6.11388">
        <ele>1163.8</ele>
        <time>2019-06-05T14:40:50Z</time>
      </trkpt>
      <trkpt lat="46.51241" lon="6.11262">
        <ele>1167.4</ele>
        <time>2019-06-05T14:44:05Z</time>
      </trkpt>
    </trkseg>
  </trk>
</gpx>